Time;durP1;ratioP1;P1;durP2;ratioP2;P2;SDS_P1;SDS_P2;PMS_P1;PMS_P2;Temp;Humidity;BMP_temperature;BMP_pressure;BME280_temperature;BME280_humidity;BME280_pressure;Samples;Min_cycle;Max_cycle;Signal;HPM_P1;HPM_P2
2023/01/15 00:02:16;;;;;;;0.60;0.60;;;10.80;90.50;;;13.74;54.16;96394.94;5034243;28;20041;-45
2023/01/15 00:04:43;;;;;;;0.83;0.83;;;10.90;90.50;;;13.75;54.05;96377.88;5034330;28;20041;-46
2023/01/15 00:07:11;;;;;;;0.60;0.50;;;10.90;90.30;;;13.79;53.86;96373.72;5033930;28;20413;-43
2023/01/15 00:09:39;;;;;;;0.77;0.50;;;10.90;90.50;;;13.80;54.17;96363.84;5033368;28;20041;-46
2023/01/15 00:12:07;;;;;;;0.50;0.50;;;10.90;90.60;;;13.78;54.22;96357.91;5033891;28;20437;-46
2023/01/15 00:14:35;;;;;;;0.40;0.40;;;10.90;90.90;;;13.84;53.81;96365.09;5034128;28;20048;-42
2023/01/15 00:17:02;;;;;;;0.57;0.57;;;10.90;90.90;;;13.71;54.42;96357.13;5033971;28;20053;-43
2023/01/15 00:19:30;;;;;;;2.90;1.10;;;10.90;90.90;;;13.78;54.28;96358.75;5033427;28;20041;-43
2023/01/15 00:21:58;;;;;;;1.73;0.53;;;10.90;90.70;;;13.75;54.23;96356.47;5032455;28;20156;-42
2023/01/15 00:29:59;;;;;;;0.50;0.50;;;10.90;90.50;;;13.82;54.13;96331.53;5032150;28;20049;-43
2023/01/15 00:32:28;;;;;;;0.60;0.60;;;11.00;90.30;;;13.81;54.06;96328.06;5033842;28;20390;-43
2023/01/15 00:34:58;;;;;;;0.83;0.50;;;10.90;90.30;;;13.84;53.95;96316.94;5033540;28;20053;-47
2023/01/15 00:37:26;;;;;;;0.53;0.50;;;10.90;90.10;;;13.81;53.97;96308.53;5033735;28;20456;-48
2023/01/15 00:39:54;;;;;;;0.73;0.67;;;11.00;89.70;;;13.77;53.85;96292.06;5031693;28;20045;-44
2023/01/15 00:42:21;;;;;;;0.70;0.43;;;11.00;89.50;;;13.82;53.90;96302.94;5024771;28;20042;-45
2023/01/15 00:44:49;;;;;;;0.50;0.50;;;11.00;89.40;;;13.78;53.91;96293.69;5031837;28;20049;-47
2023/01/15 00:47:17;;;;;;;0.70;0.63;;;10.90;89.40;;;13.71;54.15;96301.78;5033315;28;20045;-44
2023/01/15 00:49:45;;;;;;;0.40;0.40;;;11.00;89.60;;;13.74;54.15;96292.50;5033209;28;20485;-47
2023/01/15 00:52:13;;;;;;;0.57;0.50;;;10.90;89.30;;;13.79;53.94;96281.97;5033165;28;20144;-47
2023/01/15 00:54:41;;;;;;;0.60;0.50;;;11.00;89.20;;;13.78;53.94;96285.69;5033119;28;20069;-46
2023/01/15 00:57:10;;;;;;;0.80;0.70;;;11.00;88.80;;;13.73;53.99;96275.63;5031676;28;20060;-41
2023/01/15 00:59:38;;;;;;;0.40;0.40;;;11.00;89.20;;;13.79;53.95;96261.41;5031722;28;20042;-44
2023/01/15 01:02:06;;;;;;;0.80;0.40;;;11.00;89.10;;;13.72;54.11;96273.16;5032157;28;20050;-48
2023/01/15 01:04:34;;;;;;;0.40;0.40;;;11.00;89.20;;;13.81;54.13;96266.53;5032062;28;20040;-42
2023/01/15 01:07:03;;;;;;;0.47;0.40;;;11.00;89.10;;;13.80;53.97;96275.56;5032111;28;20056;-46
2023/01/15 01:09:30;;;;;;;0.50;0.40;;;11.00;89.30;;;13.85;53.84;96296.34;5032762;28;20045;-42
2023/01/15 01:11:58;;;;;;;0.40;0.40;;;11.10;89.00;;;13.78;53.93;96278.50;5031466;28;20049;-42
2023/01/15 01:14:27;;;;;;;0.80;0.80;;;11.00;88.50;;;13.86;53.66;96263.19;5032173;28;20053;-46
2023/01/15 01:16:56;;;;;;;0.50;0.50;;;11.10;88.40;;;13.81;53.78;96266.53;5031099;28;20504;-43
2023/01/15 01:19:25;;;;;;;1.17;0.60;;;11.10;88.00;;;13.90;53.46;96259.91;5031235;28;20519;-44
2023/01/15 01:21:53;;;;;;;0.60;0.50;;;11.10;88.10;;;13.94;53.42;96263.78;5031755;28;20046;-44
2023/01/15 01:24:23;;;;;;;0.50;0.50;;;11.20;87.70;;;13.85;53.54;96280.31;5024766;28;20045;-44
2023/01/15 01:26:51;;;;;;;0.32;0.30;;;11.20;87.50;;;13.86;53.43;96269.41;5032573;28;20065;-44
2023/01/15 01:29:22;;;;;;;0.30;0.30;;;11.20;88.40;;;13.95;53.33;96261.91;5028284;28;20056;-44
2023/01/15 01:31:50;;;;;;;0.60;0.60;;;11.20;87.10;;;13.89;53.62;96247.53;5044116;28;20045;-43
2023/01/15 01:34:19;;;;;;;0.50;0.50;;;11.20;87.00;;;14.04;53.22;96263.31;5031524;28;20558;-45
2023/01/15 01:36:46;;;;;;;0.37;0.37;;;11.20;86.80;;;14.07;52.83;96252.16;5032715;28;20049;-43
2023/01/15 01:39:17;;;;;;;0.37;0.37;;;11.30;86.70;;;13.92;53.34;96247.13;5032117;28;20045;-45
2023/01/15 01:41:46;;;;;;;0.33;0.33;;;11.30;86.50;;;13.99;53.21;96255.91;5031976;28;20105;-43
2023/01/15 01:44:35;;;;;;;0.43;0.40;;;11.30;87.00;;;13.93;53.26;96270.16;5031299;28;20049;-45
2023/01/15 01:47:13;;;;;;;0.40;0.40;;;11.20;86.60;;;14.03;53.24;96255.47;5032112;28;20046;-44
2023/01/15 01:49:43;;;;;;;1.07;0.40;;;11.30;86.80;;;14.02;53.31;96237.81;5032179;28;20529;-44
2023/01/15 01:52:18;;;;;;;0.40;0.40;;;11.30;87.00;;;13.95;53.40;96237.84;5030834;28;20381;-42
2023/01/15 01:54:48;;;;;;;3.50;0.63;;;11.30;87.00;;;13.97;53.44;96227.72;5031350;28;20049;-47
2023/01/15 01:57:17;;;;;;;0.73;0.60;;;11.30;87.20;;;14.08;53.22;96224.38;5014508;28;20115;-46
2023/01/15 01:59:46;;;;;;;0.30;0.30;;;11.40;87.00;;;14.16;52.86;96225.94;5031186;28;20038;-44
2023/01/15 02:02:19;;;;;;;0.40;0.40;;;11.30;87.30;;;14.11;53.23;96231.97;5031029;28;20492;-46
2023/01/15 02:04:48;;;;;;;1.73;0.43;;;11.40;87.10;;;14.14;53.26;96215.47;5032083;28;20046;-44
2023/01/15 02:07:16;;;;;;;0.40;0.40;;;11.40;87.70;;;14.17;53.34;96214.19;5030560;28;20057;-43
2023/01/15 02:09:44;;;;;;;0.63;0.38;;;11.40;87.80;;;14.12;53.68;96214.84;5028108;28;20076;-48
2023/01/15 02:12:28;;;;;;;0.32;0.32;;;11.40;88.10;;;14.16;53.33;96191.97;5014720;28;20057;-44
2023/01/15 02:15:18;;;;;;;0.57;0.40;;;11.40;88.20;;;14.17;53.39;96209.69;5030747;28;20068;-45
2023/01/15 02:18:03;;;;;;;0.30;0.30;;;11.40;88.20;;;14.14;53.60;96203.94;5030604;28;20041;-49
2023/01/15 02:20:51;;;;;;;1.37;0.50;;;11.40;88.20;;;14.19;53.55;96217.50;5024147;28;20041;-42
2023/01/15 02:23:50;;;;;;;0.83;0.60;;;11.40;88.70;;;14.15;53.65;96203.72;5030119;28;20053;-48
2023/01/15 02:27:05;;;;;;;0.63;0.57;;;11.40;88.70;;;14.22;53.64;96209.00;5031559;28;20033;-44
2023/01/15 02:29:43;;;;;;;0.43;0.40;;;11.40;89.00;;;14.30;53.22;96205.25;5024249;28;20037;-44
2023/01/15 02:32:29;;;;;;;0.40;0.40;;;11.40;89.20;;;14.19;53.83;96209.47;5029814;28;20053;-46
2023/01/15 02:35:24;;;;;;;0.50;0.50;;;11.40;89.70;;;14.24;54.01;96192.75;5005613;28;20057;-42
2023/01/15 02:37:57;;;;;;;0.50;0.47;;;11.40;90.70;;;14.31;53.85;96206.88;5031284;28;20041;-44
2023/01/15 02:40:27;;;;;;;0.43;0.38;;;11.40;90.90;;;14.28;53.78;96204.63;5022040;28;20433;-46
2023/01/15 02:42:56;;;;;;;0.43;0.43;;;11.40;91.10;;;14.26;54.15;96212.06;5030288;28;20048;-45
2023/01/15 02:45:32;;;;;;;1.23;0.47;;;11.40;91.40;;;14.25;54.21;96203.22;5022695;28;20041;-43
2023/01/15 02:48:11;;;;;;;0.63;0.40;;;11.40;91.90;;;14.27;54.23;96198.47;5014537;28;20058;-45
2023/01/15 02:50:52;;;;;;;0.83;0.40;;;11.40;92.00;;;14.31;54.05;96205.03;5029943;28;20046;-44
2023/01/15 02:53:26;;;;;;;0.75;0.57;;;11.30;92.10;;;14.26;54.34;96198.69;5013091;28;20058;-44
2023/01/15 02:56:12;;;;;;;0.30;0.30;;;11.30;92.30;;;14.26;54.37;96204.84;5014431;28;20064;-46
2023/01/15 02:58:50;;;;;;;0.30;0.30;;;11.40;92.30;;;14.22;54.36;96208.19;5029529;28;20044;-43
2023/01/15 03:01:27;;;;;;;0.35;0.35;;;11.30;92.40;;;14.30;54.29;96202.56;5029662;28;20068;-47
2023/01/15 03:04:20;;;;;;;0.23;0.23;;;11.40;92.20;;;14.30;54.35;96198.03;5014080;28;20413;-43
2023/01/15 03:07:20;;;;;;;0.40;0.40;;;11.40;92.30;;;14.29;54.30;96192.91;5030181;28;20041;-43
2023/01/15 03:09:48;;;;;;;0.25;0.25;;;11.40;92.30;;;14.34;54.11;96191.19;5012405;28;20049;-43
2023/01/15 03:13:03;;;;;;;1.23;0.50;;;11.40;92.00;;;14.32;54.17;96195.94;5013346;28;20056;-44
2023/01/15 03:18:59;;;;;;;0.30;0.30;;;11.40;91.90;;;14.20;54.37;96176.28;5032526;28;20068;-45
2023/01/15 03:22:12;;;;;;;0.75;0.75;;;11.40;92.10;;;14.26;54.40;96169.25;5029420;28;20045;-46
2023/01/15 03:25:12;;;;;;;0.32;0.30;;;11.40;92.00;;;14.21;54.44;96179.78;5025324;28;20520;-44
2023/01/15 03:27:46;;;;;;;0.30;0.30;;;11.40;91.80;;;14.29;54.22;96176.84;5024815;28;20123;-47
2023/01/15 03:30:20;;;;;;;0.30;0.30;;;11.40;91.80;;;14.31;54.22;96172.91;5028519;28;20123;-43
2023/01/15 03:32:49;;;;;;;0.50;0.50;;;11.50;91.70;;;14.36;54.24;96172.22;5029599;28;20551;-44
2023/01/15 03:35:54;;;;;;;0.28;0.28;;;11.50;91.50;;;14.31;54.08;96180.94;5030583;28;20037;-44
2023/01/15 03:38:46;;;;;;;0.40;0.40;;;11.50;90.80;;;14.33;54.12;96173.50;5024539;28;20053;-48
2023/01/15 03:41:49;;;;;;;0.30;0.30;;;11.50;90.80;;;14.27;54.14;96166.34;5029126;28;20046;-46
2023/01/15 03:45:04;;;;;;;0.30;0.30;;;11.50;90.80;;;14.35;54.23;96181.31;5029362;28;20041;-44
2023/01/15 03:47:51;;;;;;;0.30;0.30;;;11.50;90.70;;;14.44;54.05;96176.47;5008116;28;20049;-46
2023/01/15 03:50:41;;;;;;;0.30;0.30;;;11.60;90.80;;;14.48;53.93;96180.34;5022658;28;20485;-44
2023/01/15 03:53:45;;;;;;;0.70;0.50;;;11.60;91.30;;;14.38;54.31;96160.28;5013491;28;20060;-46
2023/01/15 03:57:02;;;;;;;0.30;0.30;;;11.60;91.60;;;14.44;54.35;96168.44;5013265;28;20057;-49
2023/01/15 03:59:38;;;;;;;0.30;0.30;;;11.60;92.00;;;14.50;54.13;96157.69;5022287;28;20049;-43
2023/01/15 04:02:10;;;;;;;0.32;0.32;;;11.50;92.50;;;14.53;54.27;96167.13;5029831;28;20057;-46
2023/01/15 04:04:39;;;;;;;0.30;0.30;;;11.60;92.30;;;14.47;54.02;96144.72;5030810;28;20034;-43
2023/01/15 04:07:07;;;;;;;0.30;0.30;;;11.60;92.70;;;14.43;54.28;96145.41;5032666;28;20505;-43
2023/01/15 04:09:39;;;;;;;0.60;0.60;;;11.60;91.70;;;14.46;54.16;96151.13;5033093;28;20057;-42
2023/01/15 04:12:11;;;;;;;0.90;0.67;;;11.60;91.50;;;14.48;53.98;96153.56;5033876;28;20042;-45
2023/01/15 04:14:43;;;;;;;0.20;0.20;;;11.60;91.20;;;14.52;53.92;96160.13;5032301;28;20056;-45
2023/01/15 04:17:16;;;;;;;0.50;0.30;;;11.60;91.00;;;14.55;53.67;96155.13;5032756;28;20045;-44
2023/01/15 04:19:44;;;;;;;1.85;0.32;;;11.60;90.90;;;14.57;53.73;96147.72;5031908;28;20056;-42
2023/01/15 04:22:13;;;;;;;0.30;0.30;;;11.60;90.70;;;14.59;53.67;96139.47;5032015;28;20532;-43
2023/01/15 04:24:41;;;;;;;0.40;0.40;;;11.60;90.60;;;14.58;53.66;96153.94;5032813;28;20034;-42
2023/01/15 04:27:09;;;;;;;1.13;0.30;;;11.60;91.50;;;14.59;53.85;96139.47;5032199;28;20045;-45
2023/01/15 04:29:37;;;;;;;0.20;0.20;;;11.60;90.70;;;14.55;53.68;96135.59;5033300;28;20068;-46
2023/01/15 04:32:04;;;;;;;0.60;0.60;;;11.60;90.70;;;14.47;53.85;96150.09;5033521;28;20492;-43
2023/01/15 04:34:34;;;;;;;0.40;0.40;;;11.60;90.70;;;14.54;53.59;96133.97;5033753;28;20048;-43
2023/01/15 04:37:02;;;;;;;0.20;0.20;;;11.60;90.40;;;14.54;53.69;96128.59;5033129;28;20052;-43
2023/01/15 04:39:31;;;;;;;0.40;0.40;;;11.60;90.40;;;14.57;53.64;96130.84;5033494;28;20390;-45
2023/01/15 04:44:45;;;;;;;0.50;0.50;;;11.60;90.40;;;14.62;53.47;96141.72;5032382;28;20041;-43
2023/01/15 04:47:13;;;;;;;0.30;0.30;;;11.60;90.30;;;14.48;54.02;96134.81;5033540;28;20046;-46
2023/01/15 04:49:41;;;;;;;0.30;0.30;;;11.60;91.10;;;14.51;53.87;96143.25;5033116;28;20408;-46
2023/01/15 04:52:09;;;;;;;0.32;0.32;;;11.60;91.20;;;14.54;54.12;96187.53;5033146;28;20516;-42
2023/01/15 04:54:37;;;;;;;0.63;0.50;;;11.60;91.30;;;13.91;57.05;96220.59;5033497;28;20045;-47
2023/01/15 04:57:06;;;;;;;0.93;0.47;;;11.30;97.00;;;13.50;57.89;96221.88;5033179;28;20049;-43
2023/01/15 04:59:34;;;;;;;0.57;0.50;;;10.80;99.90;;;12.61;60.17;96237.56;5032912;28;20044;-42
2023/01/15 05:02:02;;;;;;;1.23;0.93;;;10.10;99.90;;;12.20;61.40;96244.00;5032867;28;20045;-44
2023/01/15 05:04:33;;;;;;;1.00;0.90;;;9.70;99.90;;;12.00;61.58;96244.00;5031417;28;20497;-44
2023/01/15 05:07:03;;;;;;;0.37;0.30;;;9.40;99.90;;;11.55;63.17;96262.31;5031828;28;20041;-49
2023/01/15 05:09:31;;;;;;;2.17;0.50;;;9.20;99.90;;;11.28;63.53;96256.91;5028093;28;20042;-43
2023/01/15 05:11:59;;;;;;;0.77;0.67;;;9.00;99.90;;;11.22;64.02;96250.56;5030891;28;20049;-44
2023/01/15 05:14:27;;;;;;;1.40;1.00;;;8.90;99.90;;;11.41;62.50;96259.63;5031629;28;20045;-44
2023/01/15 05:16:55;;;;;;;2.13;0.40;;;8.90;99.90;;;11.27;63.20;96262.44;5031783;28;20481;-42
2023/01/15 05:19:23;;;;;;;0.40;0.40;;;8.90;99.90;;;11.11;63.07;96268.91;5032678;28;20096;-46
2023/01/15 05:21:52;;;;;;;1.33;0.73;;;8.70;99.90;;;10.83;63.94;96259.16;5032565;28;20037;-42
2023/01/15 05:24:20;;;;;;;1.70;1.00;;;8.60;99.90;;;10.84;63.83;96282.13;5032764;28;20060;-43
2023/01/15 05:26:48;;;;;;;2.07;1.10;;;8.50;99.90;;;10.77;63.58;96290.06;5032812;28;20408;-43
2023/01/15 05:29:15;;;;;;;1.70;0.93;;;8.40;99.90;;;10.74;64.00;96270.97;5032351;28;20048;-44
2023/01/15 05:31:44;;;;;;;2.33;1.53;;;8.40;99.90;;;10.54;64.04;96292.16;5031250;28;20072;-44
2023/01/15 05:34:12;;;;;;;3.13;1.80;;;8.30;99.90;;;10.45;64.17;96304.78;5032578;28;20056;-43
2023/01/15 05:36:40;;;;;;;3.90;1.93;;;8.20;99.90;;;9.98;65.37;96292.88;5031401;28;20516;-42
2023/01/15 05:39:09;;;;;;;3.80;1.97;;;8.00;99.90;;;10.18;64.98;96296.56;5030457;28;20057;-44
2023/01/15 05:41:49;;;;;;;2.90;1.70;;;8.00;99.90;;;10.22;64.51;96291.69;5032024;28;20377;-43
2023/01/15 05:44:28;;;;;;;2.23;1.30;;;7.90;99.90;;;10.18;64.04;96290.44;5032184;28;20037;-43
2023/01/15 05:47:01;;;;;;;2.57;1.60;;;7.90;99.90;;;10.20;63.92;96309.66;5031233;28;20041;-44
2023/01/15 05:49:30;;;;;;;1.85;1.40;;;7.80;99.90;;;10.10;64.22;96320.63;5031097;28;20523;-45
2023/01/15 05:51:59;;;;;;;2.40;1.37;;;7.70;99.90;;;10.05;63.83;96325.69;5030785;28;20041;-44
2023/01/15 05:54:32;;;;;;;1.87;0.90;;;7.70;99.90;;;9.96;63.94;96326.81;5032325;28;20049;-47
2023/01/15 05:57:00;;;;;;;2.80;1.30;;;7.60;99.90;;;9.93;64.38;96320.06;5031755;28;20076;-45
2023/01/15 05:59:31;;;;;;;1.53;1.00;;;7.60;99.90;;;10.03;63.90;96312.56;5031819;28;20041;-43
2023/01/15 06:01:59;;;;;;;3.03;1.60;;;7.60;99.90;;;10.21;63.07;96314.78;5031728;28;20500;-43
2023/01/15 06:04:27;;;;;;;1.87;1.13;;;7.60;99.90;;;10.30;63.09;96317.31;5032407;28;20094;-42
2023/01/15 06:06:57;;;;;;;1.27;0.80;;;7.60;99.90;;;10.22;62.98;96332.41;5031957;28;20041;-44
2023/01/15 06:09:26;;;;;;;1.77;1.00;;;7.60;99.90;;;10.30;63.10;96325.31;5022818;28;20049;-43
2023/01/15 06:11:55;;;;;;;1.37;1.00;;;7.60;99.90;;;10.33;62.21;96356.84;5031527;28;20045;-42
2023/01/15 06:14:23;;;;;;;0.60;0.60;;;7.60;99.90;;;10.07;62.99;96325.50;5030874;28;20053;-43
2023/01/15 06:16:51;;;;;;;1.27;0.70;;;7.50;99.90;;;9.82;63.66;96331.19;5031762;28;20046;-42
2023/01/15 06:19:19;;;;;;;0.50;0.50;;;7.40;99.90;;;9.57;64.00;96343.97;5031614;28;20680;-45
2023/01/15 06:21:47;;;;;;;0.80;0.80;;;7.30;99.90;;;9.66;63.40;96337.56;5031461;28;20523;-43
2023/01/15 06:24:16;;;;;;;0.53;0.53;;;7.20;99.90;;;9.66;63.04;96349.00;5030219;28;20042;-42
2023/01/15 06:26:45;;;;;;;0.60;0.60;;;7.20;99.90;;;9.33;64.01;96361.88;5031561;28;20037;-43
2023/01/15 06:29:16;;;;;;;0.80;0.80;;;7.10;99.90;;;9.49;63.32;96352.88;5031353;28;20052;-42
2023/01/15 06:31:44;;;;;;;1.17;0.77;;;7.00;99.90;;;9.46;63.46;96364.72;5031289;28;20056;-43
2023/01/15 06:34:11;;;;;;;2.07;1.53;;;7.00;99.90;;;9.68;62.97;96372.72;5029710;28;20222;-44
2023/01/15 06:36:39;;;;;;;0.60;0.60;;;7.00;99.90;;;9.10;63.60;96395.69;5031046;28;20046;-43
2023/01/15 06:39:07;;;;;;;0.87;0.60;;;6.90;99.90;;;9.17;63.39;96381.50;5031003;28;20049;-42
2023/01/15 06:47:22;;;;;;;0.50;0.50;;;6.60;99.90;;;8.71;64.28;96410.00;5030866;28;20049;-41
2023/01/15 06:49:57;;;;;;;0.47;0.45;;;6.50;99.90;;;8.60;64.34;96417.38;5031025;28;20042;-42
2023/01/15 06:52:26;;;;;;;;;;;6.40;99.90;;;8.84;63.64;96429.59;5024559;28;20045;-44
2023/01/15 06:54:54;;;;;;;1.07;0.60;;;6.40;99.90;;;8.66;63.66;96424.59;5030844;28;20308;-41
2023/01/15 06:57:23;;;;;;;1.80;1.00;;;6.30;99.90;;;9.01;62.63;96432.09;5023051;28;20049;-41
2023/01/15 06:59:51;;;;;;;0.67;0.50;;;6.40;99.90;;;8.98;62.56;96440.44;5030609;28;20053;-43
2023/01/15 07:02:20;;;;;;;0.53;0.53;;;6.40;99.90;;;8.63;63.01;96445.38;5030734;28;20440;-43
2023/01/15 07:04:49;;;;;;;1.50;1.10;;;6.30;99.90;;;8.81;62.81;96459.16;5013713;28;20045;-42
2023/01/15 07:07:19;;;;;;;1.07;0.83;;;6.30;99.90;;;8.85;62.70;96456.97;5030910;28;20045;-41
2023/01/15 07:09:47;;;;;;;1.43;1.03;;;6.30;99.90;;;8.57;63.51;96456.69;5030899;28;20042;-42
2023/01/15 07:12:16;;;;;;;1.93;0.50;;;6.20;99.90;;;8.51;63.30;96462.69;5029887;28;20049;-41
2023/01/15 07:14:44;;;;;;;0.50;0.50;;;6.10;99.90;;;8.66;62.71;96474.19;5030688;28;20100;-43
2023/01/15 07:17:12;;;;;;;0.40;0.40;;;6.10;99.90;;;8.48;62.51;96461.25;5030793;28;20041;-42
2023/01/15 07:19:41;;;;;;;0.57;0.50;;;6.00;99.90;;;8.59;62.53;96458.19;5029616;28;20046;-41
2023/01/15 07:22:09;;;;;;;1.10;1.00;;;6.00;99.90;;;8.66;62.32;96468.88;5030552;28;20394;-42
2023/01/15 07:24:37;;;;;;;1.73;1.10;;;6.00;99.90;;;8.72;62.16;96460.22;5030942;28;20052;-44
2023/01/15 07:27:05;;;;;;;0.63;0.63;;;6.00;99.90;;;8.83;62.21;96469.59;5030421;28;20056;-42
2023/01/15 07:29:33;;;;;;;0.77;0.77;;;6.10;99.90;;;8.60;62.10;96480.22;5030596;28;20064;-44
2023/01/15 07:32:01;;;;;;;2.40;1.90;;;6.00;99.90;;;8.50;62.29;96490.25;5030724;28;20037;-41
2023/01/15 07:34:29;;;;;;;0.60;0.60;;;6.00;99.90;;;8.59;62.35;96492.66;5030808;28;20420;-42
2023/01/15 07:36:56;;;;;;;0.60;0.60;;;6.00;99.90;;;8.48;62.43;96483.28;5030482;28;20113;-41
2023/01/15 07:39:24;;;;;;;0.77;0.77;;;5.90;99.90;;;8.67;62.03;96503.22;5030429;28;20053;-42
2023/01/15 07:50:18;;;;;;;0.73;0.73;;;6.20;99.90;;;8.86;61.29;96493.13;5034469;28;20045;-43
2023/01/15 07:52:45;;;;;;;0.20;0.20;;;6.10;99.90;;;8.94;61.29;96508.97;5034327;28;20068;-41
2023/01/15 07:55:14;;;;;;;0.37;0.37;;;6.10;99.90;;;9.04;61.26;96533.44;5034265;28;20496;-43
2023/01/15 07:57:42;;;;;;;1.63;0.50;;;6.20;99.90;;;8.95;60.90;96539.81;5033350;28;20416;-42
2023/01/15 08:00:20;;;;;;;0.53;0.53;;;6.20;99.90;;;8.88;61.04;96541.56;5032904;28;20049;-43
2023/01/15 08:02:49;;;;;;;0.53;0.50;;;6.10;99.90;;;8.78;61.25;96539.13;5032756;28;20484;-45
2023/01/15 08:05:18;;;;;;;0.47;0.47;;;6.10;99.90;;;8.60;61.39;96528.78;5034004;28;20524;-42
2023/01/15 08:07:46;;;;;;;0.40;0.40;;;6.00;99.90;;;8.60;61.43;96541.22;5033982;28;20053;-43
2023/01/15 08:10:14;;;;;;;0.60;0.40;;;6.00;99.90;;;8.48;61.86;96538.16;5030385;28;20053;-46
2023/01/15 08:15:33;;;;;;;0.70;0.60;;;6.00;99.90;;;8.37;61.87;96549.13;5023812;28;20045;-43
2023/01/15 08:18:01;;;;;;;0.82;0.75;;;5.90;99.90;;;8.27;62.21;96563.41;5031634;28;20060;-44
2023/01/15 08:20:29;;;;;;;0.93;0.73;;;5.80;99.90;;;8.15;62.56;96556.03;5032719;28;20045;-41
2023/01/15 08:22:59;;;;;;;1.67;0.50;;;5.90;99.90;;;8.35;61.84;96541.34;5032333;28;20042;-42
2023/01/15 08:25:27;;;;;;;0.70;0.40;;;5.90;99.90;;;8.09;62.25;96563.66;5024306;28;20048;-41
2023/01/15 08:27:55;;;;;;;0.40;0.40;;;5.90;99.90;;;7.92;62.91;96548.00;5030560;28;20424;-42
2023/01/15 08:30:24;;;;;;;0.43;0.40;;;5.70;99.90;;;8.26;62.03;96563.63;5032090;28;20048;-42
2023/01/15 08:32:57;;;;;;;0.40;0.40;;;5.80;99.90;;;8.33;61.56;96577.00;5031503;28;20046;-43
2023/01/15 08:35:25;;;;;;;0.22;0.22;;;5.80;99.90;;;7.85;62.07;96583.16;5024654;28;20042;-46
2023/01/15 08:37:53;;;;;;;0.33;0.33;;;5.70;99.90;;;7.95;62.35;96593.56;5031235;28;20065;-43
2023/01/15 08:40:22;;;;;;;0.50;0.50;;;5.70;99.90;;;8.19;61.59;96595.28;5031585;28;20520;-44
2023/01/15 08:42:49;;;;;;;0.53;0.53;;;5.80;99.90;;;8.18;61.95;96608.69;5031366;28;20044;-41
2023/01/15 08:45:17;;;;;;;0.50;0.50;;;5.70;99.90;;;7.78;62.99;96598.06;5031158;28;20343;-42
2023/01/15 08:47:45;;;;;;;0.50;0.50;;;5.60;99.90;;;7.99;62.43;96594.03;5032489;28;20056;-42
2023/01/15 08:50:12;;;;;;;0.40;0.40;;;5.60;99.90;;;8.16;62.03;96606.25;5031140;28;20273;-44
2023/01/15 08:52:40;;;;;;;0.63;0.50;;;5.60;99.90;;;8.28;60.96;96602.22;5031632;28;20041;-43
2023/01/15 08:55:08;;;;;;;0.53;0.40;;;5.70;99.90;;;8.21;61.07;96609.19;5031668;28;20046;-41
2023/01/15 08:57:37;;;;;;;0.93;0.40;;;5.60;99.90;;;8.16;61.03;96634.56;5032187;28;20041;-42
2023/01/15 09:00:06;;;;;;;0.40;0.30;;;5.50;99.90;;;8.01;61.50;96627.31;5031635;28;20053;-42
2023/01/15 09:02:34;;;;;;;0.40;0.40;;;5.50;99.90;;;7.98;62.00;96634.78;5031575;28;20045;-44
2023/01/15 09:05:02;;;;;;;0.30;0.30;;;5.40;99.90;;;7.83;62.12;96629.34;5031897;28;20508;-42
2023/01/15 09:07:29;;;;;;;1.20;0.60;;;5.40;99.90;;;8.06;61.29;96635.59;5031595;28;20041;-42
2023/01/15 09:09:57;;;;;;;1.70;0.50;;;5.40;99.90;;;8.12;61.58;96649.16;5031712;28;20038;-44
2023/01/15 09:12:26;;;;;;;0.77;0.50;;;5.50;99.90;;;7.72;62.43;96653.56;5031927;28;20037;-41
2023/01/15 09:14:54;;;;;;;0.50;0.47;;;5.30;99.90;;;7.89;62.10;96655.19;5031824;28;20053;-43
2023/01/15 09:17:32;;;;;;;0.60;0.40;;;5.30;99.90;;;7.95;62.40;96658.97;5031704;28;20412;-42
2023/01/15 09:20:01;;;;;;;0.60;0.40;;;5.40;99.90;;;8.04;61.81;96665.91;5030803;28;20045;-44
2023/01/15 09:22:29;;;;;;;0.40;0.40;;;5.40;99.90;;;8.13;61.81;96661.44;5023863;28;20053;-41
2023/01/15 09:24:58;;;;;;;0.40;0.40;;;5.50;99.90;;;8.15;61.43;96670.84;5031961;28;20034;-41
2023/01/15 09:27:27;;;;;;;0.30;0.30;;;5.60;99.90;;;8.08;62.16;96691.06;5031580;28;20060;-42
2023/01/15 09:29:55;;;;;;;0.40;0.40;;;5.50;99.90;;;8.23;61.78;96705.28;5031249;28;20045;-43
2023/01/15 09:32:23;;;;;;;0.50;0.50;;;5.60;99.90;;;8.04;61.90;96705.66;5031045;28;20038;-42
2023/01/15 09:34:51;;;;;;;0.73;0.50;;;5.50;99.90;;;8.08;62.21;96699.03;5029780;28;20394;-44
2023/01/15 09:37:19;;;;;;;0.40;0.40;;;5.50;99.90;;;8.06;61.84;96696.56;5031000;28;20052;-44
2023/01/15 09:39:47;;;;;;;1.90;1.00;;;5.40;99.90;;;8.02;62.07;96699.72;5031935;28;20053;-43
2023/01/15 09:42:49;;;;;;;1.80;0.90;;;5.40;99.90;;;8.09;62.31;96695.41;5032136;28;20053;-42
2023/01/15 09:45:55;;;;;;;0.50;0.50;;;5.40;99.90;;;7.95;62.18;96696.91;5031214;28;20053;-45
2023/01/15 09:49:02;;;;;;;1.20;0.60;;;5.50;99.90;;;7.75;62.30;96701.72;5010551;28;20072;-43
2023/01/15 09:51:37;;;;;;;0.83;0.83;;;5.30;99.90;;;7.58;62.66;96708.00;5022940;28;20048;-44
2023/01/15 09:54:16;;;;;;;0.63;0.57;;;5.30;99.90;;;7.62;62.84;96702.22;5031986;28;20079;-43
2023/01/15 09:56:45;;;;;;;0.50;0.50;;;5.30;99.90;;;7.49;62.59;96720.44;5031925;28;20048;-43
2023/01/15 09:59:30;;;;;;;0.43;0.43;;;5.20;99.90;;;7.28;62.76;96740.25;5014109;28;20061;-43
2023/01/15 10:02:27;;;;;;;0.40;0.33;;;5.00;99.90;;;7.47;62.64;96740.97;5015489;28;20273;-41
2023/01/15 10:05:10;;;;;;;1.20;1.10;;;5.00;99.90;;;7.52;62.69;96759.00;5026236;28;20363;-44
2023/01/15 10:08:27;;;;;;;3.73;2.30;;;5.00;99.90;;;7.58;62.42;96758.34;5023988;28;20515;-42
2023/01/15 10:11:20;;;;;;;3.87;2.27;;;5.00;99.90;;;7.43;62.52;96755.53;5004926;28;20057;-42
2023/01/15 10:14:10;;;;;;;7.93;5.93;;;4.90;99.90;;;7.51;62.58;96760.00;4990794;28;20046;-41
2023/01/15 10:16:38;;;;;;;5.93;4.20;;;5.00;99.90;;;7.46;61.82;96753.38;5024786;28;20057;-41
2023/01/15 10:19:08;;;;;;;3.23;2.17;;;4.90;99.90;;;7.46;61.74;96758.69;5031275;28;20060;-41
2023/01/15 10:21:43;;;;;;;2.80;2.00;;;5.00;99.90;;;7.34;61.79;96759.97;5030316;28;20049;-41
2023/01/15 10:24:23;;;;;;;1.10;1.00;;;4.90;99.90;;;7.54;61.42;96775.56;5030119;28;20037;-42
2023/01/15 10:26:57;;;;;;;0.70;0.70;;;4.90;99.90;;;7.34;61.65;96767.09;5031669;28;20037;-42
2023/01/15 10:29:45;;;;;;;;;;;4.80;99.90;;;7.34;62.15;96789.09;5030459;28;20404;-42
2023/01/15 10:32:55;;;;;;;0.63;0.63;;;4.80;99.90;;;7.26;61.29;96789.06;5021146;28;19926;-42
2023/01/15 10:35:44;;;;;;;1.20;0.83;;;4.70;99.90;;;7.06;61.85;96805.22;5024772;28;20523;-41
2023/01/15 10:38:33;;;;;;;1.23;0.93;;;4.60;99.90;;;7.11;62.07;96799.44;5036340;28;20050;-43
2023/01/15 10:41:22;;;;;;;0.70;0.70;;;4.60;99.90;;;7.25;61.43;96795.34;5021617;28;20061;-41
2023/01/15 10:44:07;;;;;;;0.90;0.87;;;4.60;99.90;;;7.37;61.32;96791.44;5021742;28;20493;-42
2023/01/15 10:46:39;;;;;;;1.00;0.60;;;4.60;99.90;;;7.46;60.61;96795.75;5024850;28;20041;-41
2023/01/15 10:49:17;;;;;;;0.90;0.60;;;4.70;99.90;;;7.45;60.66;96794.09;5025758;28;20048;-42
2023/01/15 10:52:03;;;;;;;0.70;0.60;;;4.80;99.90;;;7.36;60.75;96788.94;5025617;28;20405;-45
2023/01/15 10:54:40;;;;;;;1.27;1.03;;;4.60;99.90;;;7.37;60.71;96822.38;5024075;28;20504;-40
2023/01/15 10:57:13;;;;;;;0.90;0.90;;;4.70;99.90;;;7.13;60.66;96842.47;5024412;28;20523;-41
2023/01/15 10:59:52;;;;;;;1.20;1.10;;;4.60;99.90;;;6.96;61.31;96835.44;5023620;28;20049;-40
2023/01/15 11:02:36;;;;;;;1.73;1.50;;;4.40;99.90;;;6.76;61.52;96818.97;5022225;28;20425;-41
2023/01/15 11:05:05;;;;;;;1.63;0.90;;;4.20;99.90;;;6.95;61.16;96825.84;5024567;28;20524;-42
2023/01/15 11:07:49;;;;;;;3.30;1.53;;;4.30;99.90;;;6.97;60.67;96821.22;5025178;28;20089;-40
2023/01/15 11:10:38;;;;;;;0.67;0.67;;;4.30;99.90;;;6.41;62.06;96823.41;5021442;28;20061;-41
2023/01/15 11:19:36;;;;;;;1.27;0.40;;;4.00;99.90;;;6.38;61.87;96842.19;5020441;28;20045;-45
2023/01/15 11:22:08;;;;;;;0.85;0.73;;;4.00;99.90;;;6.05;62.76;96853.38;5025389;28;20429;-40
2023/01/15 11:24:52;;;;;;;0.67;0.60;;;3.80;99.90;;;6.23;62.48;96837.47;5022774;28;20045;-41
2023/01/15 11:27:27;;;;;;;0.57;0.57;;;3.80;99.90;;;6.27;61.85;96836.19;5029368;28;20050;-41
2023/01/15 11:30:01;;;;;;;0.53;0.53;;;3.80;99.90;;;6.25;62.11;96834.69;5029139;28;20037;-40
2023/01/15 11:32:37;;;;;;;2.47;0.70;;;3.80;99.90;;;6.49;61.36;96834.00;5030251;28;20046;-43